Time;durP1;ratioP1;P1;durP2;ratioP2;P2;SDS_P1;SDS_P2;PMS_P1;PMS_P2;Temp;Humidity;BMP_temperature;BMP_pressure;BME280_temperature;BME280_humidity;BME280_pressure;Samples;Min_cycle;Max_cycle;Signal;HPM_P1;HPM_P2
2022/10/08 00:01:13;;;;;;;10.30;1.80;;;11.30;99.90;;;;;;5054045;28;20208;-60
2022/10/08 00:03:42;;;;;;;11.47;1.50;;;11.20;99.90;;;;;;5073371;28;20203;-60
2022/10/08 00:06:25;;;;;;;13.13;1.90;;;11.20;99.90;;;;;;5073247;28;20180;-60
2022/10/08 00:08:58;;;;;;;12.13;1.87;;;12.20;99.90;;;;;;5073548;28;20584;-60
2022/10/08 00:11:27;;;;;;;11.87;2.20;;;11.00;99.90;;;;;;5073311;28;20184;-60
2022/10/08 00:13:54;;;;;;;12.37;1.70;;;10.90;99.90;;;;;;5072811;28;20699;-60
2022/10/08 00:16:29;;;;;;;10.90;1.90;;;10.90;99.90;;;;;;5073080;28;20208;-60
2022/10/08 00:19:00;;;;;;;12.77;1.97;;;10.80;99.90;;;;;;5057122;28;20239;-60
2022/10/08 00:21:31;;;;;;;17.67;1.97;;;10.80;99.90;;;;;;5066754;28;20204;-60
2022/10/08 00:24:02;;;;;;;12.80;2.30;;;10.80;99.90;;;;;;5060225;28;20188;-60
2022/10/08 00:26:30;;;;;;;14.00;2.00;;;10.60;99.90;;;;;;5073231;28;20169;-60
2022/10/08 00:28:58;;;;;;;15.70;1.83;;;10.80;99.90;;;;;;5053327;28;20184;-60
2022/10/08 00:31:27;;;;;;;16.97;2.03;;;10.80;99.90;;;;;;5052097;28;20181;-60
2022/10/08 00:33:55;;;;;;;16.40;2.17;;;10.80;99.90;;;;;;5066045;28;20169;-60
2022/10/08 00:36:22;;;;;;;11.43;1.40;;;10.80;99.90;;;;;;5055961;28;20184;-61
2022/10/08 00:38:48;;;;;;;10.23;1.77;;;10.80;99.90;;;;;;5058099;28;20164;-60
2022/10/08 00:41:20;;;;;;;16.48;2.55;;;10.70;99.90;;;;;;5072225;28;20887;-60
2022/10/08 00:43:49;;;;;;;13.50;2.43;;;10.80;99.90;;;;;;5070021;28;20591;-61
2022/10/08 00:46:40;;;;;;;14.40;1.80;;;10.80;99.90;;;;;;5064116;28;20181;-59
2022/10/08 00:49:11;;;;;;;13.00;1.97;;;10.70;99.90;;;;;;5061158;28;20176;-58
2022/10/08 00:51:54;;;;;;;11.60;1.40;;;10.60;99.90;;;;;;5072695;28;20184;-59
2022/10/08 00:54:21;;;;;;;8.17;1.53;;;10.50;99.90;;;;;;5071148;28;20200;-58
2022/10/08 00:56:50;;;;;;;14.00;2.00;;;10.60;99.90;;;;;;5072672;28;20184;-59
2022/10/08 00:59:17;;;;;;;15.93;1.97;;;10.50;99.90;;;;;;5072618;28;20264;-59
2022/10/08 01:01:43;;;;;;;13.10;1.83;;;10.50;99.90;;;;;;5072413;28;20196;-58
2022/10/08 01:04:10;;;;;;;17.87;2.67;;;10.40;99.90;;;;;;5070887;28;20265;-58
2022/10/08 01:06:59;;;;;;;12.33;1.93;;;10.40;99.90;;;;;;5072719;28;20181;-58
2022/10/08 01:09:51;;;;;;;15.97;2.13;;;10.40;99.90;;;;;;5054714;28;20224;-57
2022/10/08 01:12:45;;;;;;;18.23;1.60;;;10.30;99.90;;;;;;5059327;28;20217;-57
2022/10/08 01:15:31;;;;;;;14.25;2.28;;;9.90;99.90;;;;;;5068272;28;20501;-58
2022/10/08 01:18:02;;;;;;;15.90;2.13;;;10.10;99.90;;;;;;5066179;28;20198;-58
2022/10/08 01:20:34;;;;;;;7.90;1.63;;;9.90;99.90;;;;;;5068840;28;20216;-57
2022/10/08 01:23:28;;;;;;;21.17;2.10;;;9.80;99.90;;;;;;5051805;28;20424;-58
2022/10/08 01:25:56;;;;;;;15.87;2.30;;;10.40;99.90;;;;;;5051160;28;20420;-58
2022/10/08 01:28:29;;;;;;;15.13;2.27;;;10.10;99.90;;;;;;5052468;28;20402;-58
2022/10/08 01:31:05;;;;;;;13.80;2.10;;;9.90;99.90;;;;;;5056035;28;20223;-58
2022/10/08 01:33:46;;;;;;;12.43;1.60;;;9.90;99.90;;;;;;5069828;28;20233;-58
2022/10/08 01:36:17;;;;;;;12.07;2.40;;;9.90;99.90;;;;;;5072086;28;20290;-59
2022/10/08 01:38:49;;;;;;;8.40;1.70;;;9.90;99.90;;;;;;5067040;28;20269;-59
2022/10/08 01:41:17;;;;;;;15.70;2.03;;;9.90;99.90;;;;;;5052042;28;20588;-59
2022/10/08 01:43:48;;;;;;;10.47;1.63;;;10.10;99.90;;;;;;5054118;28;20177;-59
2022/10/08 01:46:19;;;;;;;14.43;1.40;;;9.90;99.90;;;;;;5068746;28;20670;-58
2022/10/08 01:48:48;;;;;;;15.87;1.83;;;9.90;99.90;;;;;;5070897;28;20189;-59
2022/10/08 01:51:42;;;;;;;11.70;1.73;;;10.00;99.90;;;;;;5061145;28;20296;-59
2022/10/08 01:54:11;;;;;;;17.90;1.97;;;9.90;99.90;;;;;;5020626;28;20196;-59
2022/10/08 01:56:38;;;;;;;15.33;2.17;;;10.00;99.90;;;;;;5051715;28;20223;-58
2022/10/08 01:59:12;;;;;;;22.40;1.80;;;10.10;99.90;;;;;;5062268;28;20226;-58
2022/10/08 02:02:00;;;;;;;8.77;1.63;;;10.20;99.90;;;;;;5055454;28;20643;-58
2022/10/08 02:04:37;;;;;;;13.50;1.98;;;10.10;99.90;;;;;;5050670;28;20971;-58
2022/10/08 02:07:10;;;;;;;12.80;1.80;;;10.20;99.90;;;;;;5051410;28;20173;-59
2022/10/08 02:09:41;;;;;;;9.27;1.70;;;10.40;99.90;;;;;;5064187;28;20222;-58
2022/10/08 02:12:08;;;;;;;17.10;2.10;;;10.40;99.90;;;;;;5053782;28;20534;-59
2022/10/08 02:14:37;;;;;;;17.00;1.70;;;10.40;99.90;;;;;;5051303;28;20177;-58
2022/10/08 02:17:21;;;;;;;14.47;1.97;;;10.40;99.90;;;;;;5051296;28;20177;-59
2022/10/08 02:19:58;;;;;;;14.63;1.90;;;10.40;99.90;;;;;;5060890;28;20176;-58
2022/10/08 02:22:34;;;;;;;14.77;1.80;;;10.50;99.90;;;;;;5071416;28;20523;-58
2022/10/08 02:25:14;;;;;;;19.03;2.20;;;10.50;99.90;;;;;;5064699;28;20180;-58
2022/10/08 02:27:54;;;;;;;15.17;1.80;;;10.50;99.90;;;;;;5064720;28;20195;-59
2022/10/08 02:30:20;;;;;;;19.20;2.53;;;10.50;99.90;;;;;;5055888;28;20212;-59
2022/10/08 02:32:56;;;;;;;16.77;2.27;;;10.70;99.90;;;;;;5059273;28;20176;-59
2022/10/08 02:35:48;;;;;;;10.07;1.70;;;10.40;99.90;;;;;;5053988;28;20242;-59
2022/10/08 02:38:20;;;;;;;16.70;1.90;;;10.30;99.90;;;;;;5039657;28;20201;-58
2022/10/08 02:40:50;;;;;;;12.53;1.93;;;10.40;99.90;;;;;;5070961;28;20173;-59
2022/10/08 02:43:26;;;;;;;13.07;1.87;;;10.10;99.90;;;;;;5070139;28;20176;-59
2022/10/08 02:45:59;;;;;;;15.03;1.70;;;10.10;99.90;;;;;;5069007;28;20199;-59
2022/10/08 02:48:33;;;;;;;11.53;1.60;;;10.00;99.90;;;;;;5070427;28;20181;-59
2022/10/08 02:51:05;;;;;;;19.00;2.20;;;9.90;99.90;;;;;;5070554;28;20254;-59
2022/10/08 02:53:32;;;;;;;15.80;1.70;;;9.80;99.90;;;;;;5067840;28;20176;-59
2022/10/08 02:56:23;;;;;;;9.83;1.83;;;9.70;99.90;;;;;;5059363;28;20173;-58
2022/10/08 02:58:49;;;;;;;11.50;2.30;;;9.60;99.90;;;;;;5069112;28;20184;-59
2022/10/08 03:01:27;;;;;;;9.20;1.50;;;9.50;99.90;;;;;;5070324;28;20662;-59
2022/10/08 03:04:18;;;;;;;15.40;2.23;;;9.50;99.90;;;;;;5065634;28;20218;-60
2022/10/08 03:06:47;;;;;;;14.80;1.73;;;9.40;99.90;;;;;;5037695;28;20189;-60
2022/10/08 03:09:14;;;;;;;14.77;1.93;;;9.40;99.90;;;;;;5060758;28;20160;-59
2022/10/08 03:11:41;;;;;;;14.97;1.83;;;9.30;99.90;;;;;;5069454;28;20180;-60
2022/10/08 03:14:11;;;;;;;12.50;1.83;;;9.20;99.90;;;;;;5068022;28;20220;-60
2022/10/08 03:16:43;;;;;;;13.97;1.63;;;9.20;99.90;;;;;;5070466;28;20627;-60
2022/10/08 03:19:11;;;;;;;11.10;2.07;;;9.40;99.90;;;;;;5070440;28;20483;-60
2022/10/08 03:21:38;;;;;;;13.73;2.23;;;9.20;99.90;;;;;;5066530;28;20184;-59
2022/10/08 03:24:08;;;;;;;7.10;1.60;;;9.30;99.90;;;;;;5070640;28;20591;-60
2022/10/08 03:26:33;;;;;;;15.37;1.80;;;9.30;99.90;;;;;;5066514;28;20168;-59
2022/10/08 03:28:59;;;;;;;18.80;2.43;;;9.30;99.90;;;;;;5055489;28;20188;-60
2022/10/08 03:31:25;;;;;;;15.13;1.67;;;9.20;99.90;;;;;;5050093;28;20209;-60
2022/10/08 03:33:52;;;;;;;15.80;1.90;;;9.30;99.90;;;;;;5066274;28;20182;-59
2022/10/08 03:36:18;;;;;;;10.30;2.03;;;9.30;99.90;;;;;;5070137;28;20207;-59
2022/10/08 03:38:44;;;;;;;10.10;1.70;;;9.40;99.90;;;;;;5066075;28;20172;-58
2022/10/08 03:41:09;;;;;;;18.60;1.80;;;9.50;99.90;;;;;;5055108;28;20645;-57
2022/10/08 03:43:35;;;;;;;14.33;1.80;;;9.40;99.90;;;;;;5050951;28;20546;-59
2022/10/08 03:46:01;;;;;;;15.20;1.77;;;;;;;;;;5065502;28;20170;-59
2022/10/08 03:48:27;;;;;;;11.53;2.03;;;9.30;99.90;;;;;;5050286;28;20177;-59
2022/10/08 03:50:58;;;;;;;19.27;1.80;;;9.30;99.90;;;;;;5063689;28;20220;-59
2022/10/08 03:53:25;;;;;;;8.23;1.57;;;9.20;99.90;;;;;;5070033;28;20176;-59
2022/10/08 03:55:52;;;;;;;15.17;2.10;;;9.10;99.90;;;;;;5050342;28;20178;-59
2022/10/08 03:58:18;;;;;;;11.30;1.53;;;;;;;;;;5050168;28;20174;-59
2022/10/08 04:00:43;;;;;;;17.98;2.72;;;9.20;99.90;;;;;;5054198;28;20414;-59
2022/10/08 04:03:09;;;;;;;19.13;1.93;;;9.30;99.90;;;;;;5064834;28;20548;-58
2022/10/08 04:05:35;;;;;;;14.10;2.17;;;8.90;99.90;;;;;;5069568;28;20199;-59
2022/10/08 04:08:01;;;;;;;16.07;2.10;;;9.30;99.90;;;;;;5070062;28;20635;-59
2022/10/08 04:10:26;;;;;;;13.50;1.90;;;9.00;99.90;;;;;;5061156;28;20213;-59
2022/10/08 04:12:52;;;;;;;12.87;1.97;;;9.20;99.90;;;;;;5049895;28;20228;-58
2022/10/08 04:15:18;;;;;;;16.93;2.00;;;9.30;99.90;;;;;;5063359;28;20503;-59
2022/10/08 04:17:44;;;;;;;16.93;2.03;;;;;;;;;;5071064;28;20176;-58
2022/10/08 04:20:10;;;;;;;11.60;1.83;;;9.40;99.90;;;;;;5073192;28;20212;-58
2022/10/08 04:22:36;;;;;;;18.15;2.42;;;;;;;;;;5072485;28;20952;-59
2022/10/08 04:25:01;;;;;;;16.03;2.20;;;9.40;99.90;;;;;;5068715;28;20693;-59
2022/10/08 04:27:27;;;;;;;9.67;1.90;;;9.30;99.90;;;;;;5072446;28;20267;-59
2022/10/08 04:29:53;;;;;;;14.37;2.10;;;9.00;99.90;;;;;;5071826;28;20718;-59
2022/10/08 04:32:18;;;;;;;16.70;2.30;;;9.00;99.90;;;;;;5072470;28;20620;-59
2022/10/08 04:34:44;;;;;;;17.33;1.97;;;9.10;99.90;;;;;;5071941;28;20181;-59
2022/10/08 04:37:09;;;;;;;10.30;1.90;;;8.80;99.90;;;;;;5061864;28;20177;-59
2022/10/08 04:39:35;;;;;;;16.23;2.20;;;8.80;99.90;;;;;;5063259;28;20184;-58
2022/10/08 04:42:01;;;;;;;12.07;2.37;;;9.00;99.90;;;;;;5069883;28;20207;-58
2022/10/08 04:44:26;;;;;;;12.93;2.03;;;8.70;99.90;;;;;;5053710;28;20957;-58
2022/10/08 04:46:52;;;;;;;16.37;1.90;;;8.90;99.90;;;;;;5065775;28;20701;-57
2022/10/08 04:49:18;;;;;;;8.77;2.10;;;8.60;99.90;;;;;;5052902;28;20176;-58
2022/10/08 04:51:44;;;;;;;13.73;1.80;;;8.80;99.90;;;;;;5051455;28;20204;-58
2022/10/08 04:54:10;;;;;;;15.63;2.20;;;8.70;99.90;;;;;;5069341;28;20647;-57
2022/10/08 04:56:36;;;;;;;11.47;1.80;;;8.60;99.90;;;;;;5062609;28;20192;-57
2022/10/08 04:59:02;;;;;;;16.27;1.87;;;8.70;99.90;;;;;;5072404;28;20263;-60
2022/10/08 05:01:28;;;;;;;15.30;1.80;;;8.60;99.90;;;;;;5072302;28;20181;-60
2022/10/08 05:03:56;;;;;;;14.20;2.37;;;8.30;99.90;;;;;;5072202;28;20197;-60
2022/10/08 05:06:24;;;;;;;12.50;2.03;;;8.50;99.90;;;;;;5059968;28;20172;-60
2022/10/08 05:08:50;;;;;;;11.43;2.20;;;8.70;99.90;;;;;;5072639;28;20180;-60
2022/10/08 05:11:17;;;;;;;10.13;1.80;;;8.60;99.90;;;;;;5072285;28;20215;-60
2022/10/08 05:13:43;;;;;;;19.52;2.92;;;;;;;;;;5071469;28;20419;-60
2022/10/08 05:16:12;;;;;;;11.10;2.00;;;8.60;99.90;;;;;;5072146;28;20188;-60
2022/10/08 05:18:40;;;;;;;14.77;2.00;;;8.30;99.90;;;;;;5069978;28;20267;-60
2022/10/08 05:21:08;;;;;;;13.47;2.20;;;8.50;99.90;;;;;;5062988;28;20657;-60
2022/10/08 05:23:34;;;;;;;9.07;2.03;;;8.50;99.90;;;;;;5057759;28;20177;-60
2022/10/08 05:26:01;;;;;;;16.00;2.50;;;8.30;99.90;;;;;;5067523;28;20181;-60
2022/10/08 05:28:27;;;;;;;12.23;2.03;;;8.10;99.90;;;;;;5070880;28;20215;-60
2022/10/08 05:30:59;;;;;;;18.00;2.00;;;8.30;99.90;;;;;;5071538;28;20291;-62
2022/10/08 05:33:25;;;;;;;19.37;2.33;;;;;;;;;;5071841;28;20176;-60
2022/10/08 05:35:51;;;;;;;14.60;2.40;;;8.30;99.90;;;;;;5059727;28;20182;-58
2022/10/08 05:38:16;;;;;;;13.30;1.97;;;8.30;99.90;;;;;;5070276;28;20256;-58
2022/10/08 05:40:42;;;;;;;15.33;2.30;;;;;;;;;;5072147;28;20258;-60
2022/10/08 05:43:08;;;;;;;16.00;2.10;;;8.30;99.90;;;;;;5067323;28;20181;-59
2022/10/08 05:45:33;;;;;;;14.60;2.30;;;8.30;99.90;;;;;;5071673;28;20649;-59
2022/10/08 05:47:59;;;;;;;6.87;1.73;;;8.10;99.90;;;;;;5066833;28;20197;-59
2022/10/08 05:50:25;;;;;;;15.63;2.17;;;8.00;99.90;;;;;;5064996;28;20286;-60
2022/10/08 05:52:50;;;;;;;13.47;2.03;;;8.00;99.90;;;;;;5071633;28;20259;-59
2022/10/08 05:55:16;;;;;;;15.20;2.23;;;8.20;99.90;;;;;;5071527;28;20647;-59
2022/10/08 05:57:42;;;;;;;14.63;2.23;;;8.40;99.90;;;;;;5057470;28;20644;-61
2022/10/08 06:00:08;;;;;;;9.07;2.20;;;8.10;99.90;;;;;;5052796;28;20177;-59
2022/10/08 06:02:34;;;;;;;15.37;2.47;;;;;;;;;;5071233;28;20183;-59
2022/10/08 06:05:00;;;;;;;14.17;2.03;;;;;;;;;;5071406;28;20172;-59
2022/10/08 06:07:26;;;;;;;19.20;2.40;;;8.20;99.90;;;;;;5060165;28;20177;-58
2022/10/08 06:09:51;;;;;;;10.93;2.00;;;8.10;99.90;;;;;;5056149;28;20622;-60
2022/10/08 06:12:17;;;;;;;15.33;2.20;;;8.30;99.90;;;;;;5063992;28;20273;-59
2022/10/08 06:14:42;;;;;;;21.70;2.17;;;7.90;99.90;;;;;;5070741;28;20612;-59
2022/10/08 06:17:08;;;;;;;9.33;1.67;;;8.00;99.90;;;;;;5070604;28;20180;-59
2022/10/08 06:19:36;;;;;;;13.80;2.00;;;8.10;99.90;;;;;;5070475;28;20298;-59
2022/10/08 06:22:02;;;;;;;15.20;2.13;;;;;;;;;;5062415;28;20612;-59
2022/10/08 06:24:28;;;;;;;15.57;2.37;;;8.10;99.90;;;;;;5051299;28;20263;-59
2022/10/08 06:26:53;;;;;;;21.33;2.40;;;8.00;99.90;;;;;;5067574;28;20656;-59
2022/10/08 06:29:21;;;;;;;13.80;2.10;;;8.00;99.90;;;;;;5070983;28;20187;-59
2022/10/08 06:31:47;;;;;;;17.70;2.30;;;7.90;99.90;;;;;;5070352;28;20208;-58
2022/10/08 06:34:13;;;;;;;11.80;2.13;;;8.50;99.90;;;;;;5070463;28;20176;-59
2022/10/08 06:36:38;;;;;;;17.67;2.43;;;8.00;99.90;;;;;;5066721;28;20188;-59
2022/10/08 06:39:09;;;;;;;18.63;2.40;;;7.90;99.90;;;;;;5050823;28;20261;-59
2022/10/08 06:41:35;;;;;;;10.60;2.07;;;7.60;99.90;;;;;;5053327;28;20207;-60
2022/10/08 06:44:03;;;;;;;14.20;2.40;;;7.90;99.90;;;;;;5065219;28;20180;-60
2022/10/08 06:46:30;;;;;;;10.83;2.07;;;7.80;99.90;;;;;;5068878;28;20169;-60
2022/10/08 06:48:56;;;;;;;8.30;1.73;;;7.90;99.90;;;;;;5070517;28;20531;-60
2022/10/08 06:51:22;;;;;;;16.60;2.03;;;7.90;99.90;;;;;;5069017;28;20762;-62
2022/10/08 06:53:55;;;;;;;10.13;1.80;;;8.00;99.90;;;;;;5069245;28;20180;-60
2022/10/08 06:56:23;;;;;;;15.40;2.00;;;8.00;99.90;;;;;;5069447;28;20259;-60
2022/10/08 06:58:48;;;;;;;13.93;2.63;;;8.00;99.90;;;;;;5059246;28;20173;-61
2022/10/08 07:01:16;;;;;;;15.27;2.23;;;8.00;99.90;;;;;;5068007;28;20586;-60
2022/10/08 07:03:42;;;;;;;19.20;2.13;;;8.00;99.90;;;;;;5066322;28;20258;-59
2022/10/08 07:06:10;;;;;;;7.37;1.70;;;8.10;99.90;;;;;;5070949;28;20547;-60
2022/10/08 07:08:36;;;;;;;12.80;2.17;;;8.20;99.90;;;;;;5063962;28;20184;-62
2022/10/08 07:11:06;;;;;;;13.20;2.27;;;8.20;99.90;;;;;;5051825;28;20258;-62
2022/10/08 07:13:33;;;;;;;19.23;2.93;;;8.20;99.90;;;;;;5049139;28;20722;-62
2022/10/08 07:16:22;;;;;;;17.63;2.23;;;8.20;99.90;;;;;;5064554;28;20196;-60
2022/10/08 07:18:52;;;;;;;21.23;2.33;;;8.50;99.90;;;;;;5050599;28;20165;-60
2022/10/08 07:21:19;;;;;;;14.67;2.50;;;8.60;99.90;;;;;;5050411;28;20252;-60
2022/10/08 07:23:45;;;;;;;14.63;2.27;;;8.50;99.90;;;;;;5050411;28;20219;-60
2022/10/08 07:26:16;;;;;;;16.77;2.50;;;8.50;99.90;;;;;;5050323;28;20199;-60
2022/10/08 07:28:48;;;;;;;14.87;2.70;;;8.60;99.90;;;;;;5050411;28;20235;-60
2022/10/08 07:31:16;;;;;;;12.37;2.40;;;8.70;99.90;;;;;;5063516;28;20212;-60
2022/10/08 07:33:42;;;;;;;18.60;2.67;;;8.40;99.90;;;;;;5070341;28;20626;-60
2022/10/08 07:36:16;;;;;;;12.53;2.50;;;8.80;99.90;;;;;;5070453;28;20179;-60
2022/10/08 07:38:42;;;;;;;18.33;2.20;;;8.90;99.90;;;;;;5069374;28;20176;-60
2022/10/08 07:41:09;;;;;;;19.03;2.60;;;8.90;99.90;;;;;;5070476;28;20604;-60
2022/10/08 07:43:36;;;;;;;14.87;2.50;;;9.10;99.90;;;;;;5070401;28;20169;-61
2022/10/08 07:46:04;;;;;;;14.17;2.37;;;9.00;99.90;;;;;;5065597;28;20256;-60
2022/10/08 07:48:30;;;;;;;16.27;2.40;;;9.10;99.90;;;;;;5069006;28;20184;-61
2022/10/08 07:51:04;;;;;;;14.27;3.10;;;9.20;99.90;;;;;;5069633;28;20277;-61
2022/10/08 07:53:29;;;;;;;16.07;2.80;;;9.20;99.90;;;;;;5073390;28;20178;-59
2022/10/08 07:55:56;;;;;;;15.30;3.10;;;9.30;99.90;;;;;;5063167;28;20201;-59
2022/10/08 07:58:22;;;;;;;17.30;2.43;;;;;;;;;;5058668;28;20644;-59
2022/10/08 08:00:48;;;;;;;19.67;2.67;;;9.50;99.90;;;;;;5072749;28;20210;-59
2022/10/08 08:03:13;;;;;;;13.43;2.10;;;9.60;99.90;;;;;;5066371;28;20173;-59
2022/10/08 08:05:39;;;;;;;23.93;2.70;;;9.80;99.90;;;;;;5052499;28;20555;-59
2022/10/08 08:08:05;;;;;;;15.50;2.77;;;10.00;99.90;;;;;;5057556;28;20235;-59
2022/10/08 08:10:30;;;;;;;21.00;2.63;;;10.20;99.90;;;;;;5065863;28;20223;-59
2022/10/08 08:12:56;;;;;;;17.37;2.70;;;10.30;99.90;;;;;;5060967;28;20257;-58
2022/10/08 08:15:22;;;;;;;12.47;2.23;;;10.50;99.90;;;;;;5053810;28;20184;-59
2022/10/08 08:17:47;;;;;;;17.50;2.70;;;11.50;99.90;;;;;;5064627;28;20233;-60
2022/10/08 08:20:13;;;;;;;14.13;3.27;;;11.70;99.90;;;;;;5073557;28;20314;-61
2022/10/08 08:22:39;;;;;;;15.73;2.47;;;12.20;99.90;;;;;;5073261;28;20588;-58
2022/10/08 08:25:05;;;;;;;19.00;3.03;;;12.50;99.90;;;;;;5073212;28;20172;-58
2022/10/08 08:27:30;;;;;;;11.65;2.38;;;12.90;99.90;;;;;;5072926;28;20176;-59
2022/10/08 08:29:56;;;;;;;13.65;2.40;;;13.00;99.90;;;;;;5073180;28;20655;-59
2022/10/08 08:32:22;;;;;;;18.10;2.88;;;13.00;99.90;;;;;;5060525;28;20181;-59
2022/10/08 08:34:47;;;;;;;12.73;2.50;;;13.00;99.90;;;;;;5061399;28;20233;-61
2022/10/08 08:37:13;;;;;;;19.63;2.75;;;13.00;99.90;;;;;;5063897;28;20173;-60
2022/10/08 08:39:39;;;;;;;28.25;2.70;;;13.10;99.90;;;;;;5061430;28;20640;-61
2022/10/08 08:42:15;;;;;;;15.00;2.40;;;13.20;99.90;;;;;;5067561;28;20247;-61
2022/10/08 08:44:46;;;;;;;15.05;2.53;;;13.40;99.90;;;;;;5073157;28;20561;-61
2022/10/08 08:47:23;;;;;;;20.37;2.57;;;13.70;99.90;;;;;;5072949;28;20252;-61
2022/10/08 08:49:48;;;;;;;16.00;2.70;;;13.50;99.90;;;;;;5073139;28;20231;-61
2022/10/08 08:52:17;;;;;;;14.85;2.75;;;13.60;99.90;;;;;;5073081;28;20631;-61
2022/10/08 08:54:48;;;;;;;22.17;3.00;;;13.60;99.90;;;;;;5072148;28;20176;-61
2022/10/08 08:57:40;;;;;;;19.97;3.30;;;13.70;99.90;;;;;;5071989;28;20696;-61
2022/10/08 09:00:17;;;;;;;23.52;2.58;;;13.80;99.90;;;;;;5052467;28;20193;-61
2022/10/08 09:03:02;;;;;;;22.98;3.55;;;13.90;99.90;;;;;;5052349;28;20251;-62
2022/10/08 09:05:31;;;;;;;19.75;2.22;;;13.80;99.90;;;;;;5052773;28;20651;-62
2022/10/08 09:08:21;;;;;;;14.63;2.40;;;14.00;99.90;;;;;;5063608;28;20177;-61
2022/10/08 09:10:56;;;;;;;22.75;2.35;;;14.00;99.90;;;;;;5072198;28;20313;-61
2022/10/08 09:14:06;;;;;;;16.40;2.72;;;14.30;99.90;;;;;;5071032;28;20231;-61
2022/10/08 09:16:34;;;;;;;16.30;3.00;;;14.10;99.90;;;;;;5041577;28;20232;-62
2022/10/08 09:18:59;;;;;;;11.98;1.70;;;14.10;99.90;;;;;;5061540;28;20276;-61
2022/10/08 09:21:29;;;;;;;19.20;2.33;;;14.10;99.90;;;;;;5072545;28;20271;-61
2022/10/08 09:23:55;;;;;;;19.52;2.22;;;14.10;99.90;;;;;;5071935;28;20215;-61
2022/10/08 09:26:22;;;;;;;17.75;2.58;;;14.20;99.90;;;;;;5069923;28;20211;-62
2022/10/08 09:28:50;;;;;;;13.23;2.20;;;14.30;99.90;;;;;;5065211;28;20165;-62
2022/10/08 09:31:47;;;;;;;12.10;2.08;;;14.40;99.90;;;;;;5066179;28;20226;-62
2022/10/08 09:34:14;;;;;;;14.52;2.40;;;14.60;99.90;;;;;;5072231;28;20181;-61
2022/10/08 09:36:41;;;;;;;13.20;1.98;;;14.60;99.90;;;;;;5072208;28;20184;-61
2022/10/08 09:39:20;;;;;;;12.00;2.42;;;14.80;99.90;;;;;;5072182;28;20175;-61
2022/10/08 09:42:02;;;;;;;16.52;2.53;;;14.80;99.90;;;;;;5071168;28;20199;-61
2022/10/08 09:44:47;;;;;;;17.67;2.28;;;14.80;99.90;;;;;;5063537;28;20183;-61
2022/10/08 09:47:17;;;;;;;15.20;2.50;;;15.00;99.90;;;;;;5071993;28;20175;-61
2022/10/08 09:49:48;;;;;;;10.52;1.90;;;15.10;99.90;;;;;;5071747;28;20254;-61
2022/10/08 09:52:25;;;;;;;11.10;2.10;;;15.20;99.90;;;;;;5070570;28;20255;-61
2022/10/08 09:55:00;;;;;;;11.30;1.83;;;15.40;99.90;;;;;;5060932;28;20173;-61
2022/10/08 09:57:27;;;;;;;12.00;2.00;;;15.30;99.90;;;;;;5062613;28;20194;-61
2022/10/08 09:59:58;;;;;;;12.48;1.90;;;17.00;99.90;;;;;;5071360;28;20651;-61
2022/10/08 10:02:36;;;;;;;11.43;2.63;;;15.50;99.90;;;;;;5071640;28;20178;-62
2022/10/08 10:05:05;;;;;;;11.00;2.00;;;15.70;99.90;;;;;;5060465;28;20187;-62
2022/10/08 10:07:37;;;;;;;13.50;2.10;;;15.70;99.90;;;;;;5050486;28;20656;-61
2022/10/08 10:10:08;;;;;;;14.50;2.15;;;15.80;99.90;;;;;;5069286;28;20211;-60
2022/10/08 10:12:38;;;;;;;15.63;2.35;;;16.50;99.90;;;;;;5071319;28;20253;-60
2022/10/08 10:15:18;;;;;;;15.07;1.95;;;16.40;99.90;;;;;;5071399;28;20177;-60
2022/10/08 10:18:07;;;;;;;16.67;2.33;;;16.20;99.90;;;;;;5055995;28;20238;-60
2022/10/08 10:20:41;;;;;;;10.07;1.35;;;16.30;99.90;;;;;;5064878;28;20191;-60
2022/10/08 10:23:22;;;;;;;13.48;2.42;;;17.80;99.90;;;;;;5071331;28;20273;-60
2022/10/08 10:25:56;;;;;;;10.60;1.83;;;19.10;99.90;;;;;;5071368;28;20195;-60
2022/10/08 10:28:32;;;;;;;15.20;2.05;;;19.10;99.90;;;;;;5068321;28;20626;-60
2022/10/08 10:31:10;;;;;;;11.48;2.00;;;18.40;99.90;;;;;;5063047;28;20212;-60
2022/10/08 10:33:58;;;;;;;15.02;2.60;;;18.20;99.90;;;;;;5053363;28;20240;-59
2022/10/08 10:36:29;;;;;;;16.52;2.60;;;19.20;99.90;;;;;;5051255;28;20180;-60
2022/10/08 10:39:15;;;;;;;11.13;2.30;;;21.50;99.90;;;;;;5058056;28;20169;-60
2022/10/08 10:41:52;;;;;;;11.98;2.55;;;20.40;99.90;;;;;;5051104;28;20197;-60
2022/10/08 10:44:41;;;;;;;10.90;2.08;;;20.40;99.90;;;;;;5050930;28;20647;-61
2022/10/08 10:47:08;;;;;;;5.57;1.58;;;21.90;99.90;;;;;;5051089;28;20723;-60
2022/10/08 10:49:40;;;;;;;7.63;1.83;;;20.20;99.90;;;;;;5050810;28;20170;-60
2022/10/08 10:52:32;;;;;;;10.30;1.80;;;20.10;99.90;;;;;;5051009;28;20666;-60
2022/10/08 10:54:58;;;;;;;8.98;1.55;;;21.20;99.90;;;;;;5051113;28;20172;-60
2022/10/08 10:57:42;;;;;;;7.38;1.73;;;21.20;99.90;;;;;;5050802;28;20165;-59
2022/10/08 11:00:20;;;;;;;5.15;1.50;;;23.30;99.90;;;;;;5050845;28;20256;-59
2022/10/08 11:03:32;;;;;;;9.10;2.05;;;24.40;99.90;;;;;;5054681;28;20184;-60
2022/10/08 11:06:27;;;;;;;7.20;1.65;;;25.10;99.90;;;;;;5064138;28;20208;-60
2022/10/08 11:08:59;;;;;;;7.43;1.70;;;25.70;99.90;;;;;;5070682;28;20376;-59
2022/10/08 11:12:02;;;;;;;7.20;2.20;;;26.50;99.90;;;;;;5070290;28;20253;-60
2022/10/08 11:14:54;;;;;;;9.25;1.63;;;27.20;99.90;;;;;;5037422;28;20290;-60
2022/10/08 11:17:48;;;;;;;8.30;1.80;;;27.00;99.90;;;;;;5069232;28;20196;-60
2022/10/08 11:20:38;;;;;;;8.23;1.73;;;27.50;99.90;;;;;;5063243;28;20192;-60
2022/10/08 11:23:16;;;;;;;7.20;1.77;;;27.50;99.90;;;;;;5068721;28;20651;-60
2022/10/08 11:25:57;;;;;;;10.35;1.77;;;27.50;99.90;;;;;;5054306;28;20192;-60
2022/10/08 11:28:23;;;;;;;9.32;2.30;;;28.20;99.90;;;;;;5070704;28;20643;-60
2022/10/08 11:31:11;;;;;;;11.00;2.42;;;28.60;99.90;;;;;;5072927;28;20204;-60
2022/10/08 11:33:37;;;;;;;10.15;2.13;;;27.30;99.90;;;;;;5074640;28;20202;-60
2022/10/08 11:36:08;;;;;;;7.82;2.20;;;27.30;99.90;;;;;;5074518;28;20199;-60
2022/10/08 11:38:45;;;;;;;3.78;1.83;;;27.80;99.90;;;;;;5073504;28;20222;-60
2022/10/08 11:41:39;;;;;;;8.38;2.00;;;27.10;99.90;;;;;;5073279;28;20172;-60
2022/10/08 11:44:09;;;;;;;9.98;1.70;;;27.80;99.90;;;;;;5070371;28;20203;-60
2022/10/08 11:46:35;;;;;;;5.63;2.05;;;27.70;99.90;;;;;;5054115;28;20161;-59
2022/10/08 11:49:13;;;;;;;10.68;2.35;;;26.40;99.90;;;;;;5054367;28;20218;-59
2022/10/08 11:51:44;;;;;;;11.45;1.92;;;24.50;99.90;;;;;;5054318;28;20221;-59
2022/10/08 11:54:33;;;;;;;8.02;1.67;;;24.70;99.90;;;;;;5054097;28;20252;-60
2022/10/08 11:57:32;;;;;;;9.20;1.73;;;26.60;99.90;;;;;;5054138;28;20231;-60
2022/10/08 12:00:17;;;;;;;13.43;1.83;;;27.10;99.90;;;;;;5054384;28;20173;-59
2022/10/08 12:02:51;;;;;;;4.80;1.67;;;28.10;99.90;;;;;;5054044;28;20196;-60
2022/10/08 12:05:23;;;;;;;6.65;1.85;;;28.20;99.90;;;;;;5054047;28;20311;-60
2022/10/08 12:07:52;;;;;;;8.57;1.45;;;28.10;99.90;;;;;;5052606;28;20254;-60
2022/10/08 12:10:17;;;;;;;5.88;1.60;;;28.20;99.90;;;;;;5053765;28;20694;-60
2022/10/08 12:12:49;;;;;;;7.38;1.98;;;28.20;99.90;;;;;;5053622;28;20212;-61
2022/10/08 12:15:23;;;;;;;8.93;1.88;;;28.20;99.90;;;;;;5053983;28;20194;-60
2022/10/08 12:17:57;;;;;;;7.57;2.13;;;27.30;99.90;;;;;;5053772;28;20180;-60
2022/10/08 12:20:27;;;;;;;8.48;2.20;;;26.40;99.90;;;;;;5054024;28;20177;-60
2022/10/08 12:23:07;;;;;;;13.70;2.15;;;26.00;99.90;;;;;;5053746;28;20172;-60
2022/10/08 12:25:36;;;;;;;12.07;2.47;;;26.50;99.90;;;;;;5060602;28;20179;-61
2022/10/08 12:28:20;;;;;;;11.15;2.05;;;27.40;99.90;;;;;;5073448;28;20199;-61
2022/10/08 12:30:51;;;;;;;8.35;1.95;;;27.50;99.90;;;;;;5073219;28;20208;-61
2022/10/08 12:33:17;;;;;;;6.38;2.20;;;28.10;99.90;;;;;;5073887;28;20170;-60
2022/10/08 12:36:02;;;;;;;10.93;2.03;;;28.10;99.90;;;;;;5073373;28;20305;-59
2022/10/08 12:38:58;;;;;;;7.70;1.90;;;28.80;99.90;;;;;;5071949;28;20172;-59
2022/10/08 12:41:45;;;;;;;8.02;2.17;;;27.80;99.90;;;;;;5073175;28;20175;-59
2022/10/08 12:44:40;;;;;;;9.40;2.05;;;27.70;99.90;;;;;;5073094;28;20202;-59
2022/10/08 12:47:19;;;;;;;8.80;2.17;;;27.20;99.90;;;;;;5073067;28;20180;-59
2022/10/08 12:50:02;;;;;;;10.80;2.30;;;27.90;99.90;;;;;;5073157;28;20201;-60
2022/10/08 12:52:33;;;;;;;12.02;2.45;;;29.10;99.90;;;;;;5072968;28;20175;-59
2022/10/08 12:55:02;;;;;;;7.97;1.90;;;29.60;99.90;;;;;;5071609;28;20173;-58
2022/10/08 12:57:33;;;;;;;6.22;1.92;;;29.60;99.90;;;;;;5073324;28;20180;-58
2022/10/08 13:00:05;;;;;;;11.65;2.65;;;29.40;99.90;;;;;;5073378;28;20263;-59
2022/10/08 13:02:31;;;;;;;11.32;2.45;;;29.30;99.90;;;;;;5072799;28;20176;-59
2022/10/08 13:04:57;;;;;;;11.55;2.40;;;28.70;99.90;;;;;;5072866;28;20542;-59
2022/10/08 13:07:28;;;;;;;12.77;2.28;;;27.10;99.90;;;;;;5072620;28;20230;-59
2022/10/08 13:09:59;;;;;;;10.38;2.60;;;26.70;99.90;;;;;;5072533;28;20703;-59